Skip to main content

NOAA/GLERL Met Station at Michigan City, IN

Previous 5 days (top of hour only)
See also Previous 3 Hours (2 minute increments)
Jump down to Data
Switch to [English][Metric]
Zoom: Click and drag, Pan: shift-click and drag, Unzoom: double-click, Unzoom All





Note: Speed = mean wind during 2-minute period at top of hour,
Gust = max wind during 2-minute period at top of hour,
Peak = max wind during entire hour.
• See also 5-day windrose plot


NOAA/GLERL Met Station at Michigan City, IN

Previous 5 days (top of hour only)
See also Previous 3 Hours (2 minute increments)
Jump up to Graphs
Switch to [English][Metric]
                  Wind  Wind  Wind   Air   Dew   Rel     Sta   PAR
                   Spd   Gst   Dir  Temp    Pt   Hum    Pres uE/m2/
YYYY-MM-DD   CST   kts   kts   deg     F     F     %   in Hg   sec
2020-02-23 00:00 -99.0 -99.0   -99   0.0   0.0   0.0    0.00     0
2020-02-22 20:00  15.0  17.3   192  41.9  21.9  44.6    0.00     0
2020-02-22 19:00  14.2  17.1   186  42.1  24.8  49.9    0.00     0
2020-02-22 18:00   9.7  11.9   195  44.2  24.5  45.4    0.00     0
2020-02-22 17:00  12.1  13.4   196  45.5  25.7  45.5    0.00    82
2020-02-22 16:00  16.5  19.4   205  47.1  25.6  42.6    0.00   408
2020-02-22 15:00  15.2  17.1   212  46.6  25.4  43.1    0.00   658
2020-02-22 14:00  18.1  20.6   218  45.1  24.5  43.8    0.00   905
2020-02-22 13:00  15.7  19.8   204  44.1  22.6  42.3    0.00   987
2020-02-22 12:00  13.2  15.9   198  42.1  20.6  41.9    0.00  1070
2020-02-22 11:00  11.9  14.8   206  39.6  18.7  42.7    0.00  1064
2020-02-22 10:00  11.3  12.6   192  36.5  16.8  44.3    0.00   906
2020-02-22 09:00  13.2  15.0   205  33.3  15.6  48.0    0.00   661
2020-02-22 08:00  13.2  16.7   205  30.7  14.9  51.4    0.00   333
2020-02-22 07:00  13.2  15.0   200  28.4  15.2  57.3    0.00    82
2020-02-22 06:00  13.0  15.6   199  28.2  15.0  57.2    0.00     0
2020-02-22 05:00  14.6  16.5   201  28.9  15.1  55.9    0.00     0
2020-02-22 04:00  13.6  15.0   203  28.9  15.5  56.9    0.00     0
2020-02-22 03:00  15.6  17.9   204  29.1  15.9  57.5    0.00     0
2020-02-22 02:00  16.7  19.1   205  29.1  16.1  58.0    0.00     0
2020-02-22 01:00  14.6  17.1   207  29.1  17.0  60.3    0.00     0
2020-02-22 00:00  11.9  13.4   204  29.3  17.4  60.8    0.00     0
2020-02-21 23:00  18.7  20.6   213  29.7  17.5  60.2    0.00     0
2020-02-21 22:00  19.6  23.3   205  30.0  17.1  58.4    0.00     0
2020-02-21 21:00  18.1  20.4   207  30.4  16.8  56.7    0.00     0
2020-02-21 20:00  17.9  21.6   203  31.1  15.7  52.6    0.00     0
2020-02-21 19:00  17.9  20.2   197  31.6  15.2  50.2    0.00     0
2020-02-21 18:00  16.1  19.2   194  32.4  14.7  47.8    0.00     0
2020-02-21 17:00  15.7  17.9   203  33.8  13.0  42.0    0.00    82
2020-02-21 16:00  16.5  18.9   204  34.5  10.8  37.0    0.00   329
2020-02-21 15:00  18.5  21.8   207  33.8   7.5  32.9    0.00   659
2020-02-21 14:00  15.9  17.7   220  32.4   6.6  33.5    0.00   906
2020-02-21 13:00  17.5  20.8   211  30.6   2.2  29.5    0.00   988
2020-02-21 12:00  13.0  15.4   206  28.9   4.1  34.4    0.00  1071
2020-02-21 11:00  11.3  13.4   195  26.8   1.0  32.6    0.00  1013
2020-02-21 10:00  14.4  16.1   240  23.9   3.7  41.6    0.00   907
2020-02-21 09:00  12.1  13.6   230  19.9   4.5  50.9    0.00   660
2020-02-21 08:00   8.4   9.7   201  17.1   7.5  65.7    0.00   330
2020-02-21 07:00  10.3  11.7   213  15.8   8.9  73.8    0.00    65
2020-02-21 06:00   9.9  11.5   207  16.2   8.6  71.8    0.00     0
2020-02-21 05:00  16.1  18.1   261  19.0   7.1  59.4    0.00     0
2020-02-21 04:00  14.2  16.3   262  19.0   6.8  58.6    0.00     0
2020-02-21 03:00  10.1  11.7   209  16.0   7.1  67.6    0.00     0
2020-02-21 02:00   8.6  10.3   198  18.0   5.4  57.5    0.00     0
2020-02-21 01:00  12.8  15.0   253  19.6   5.5  54.0    0.00     0
2020-02-21 00:00  13.6  16.1   269  20.5   6.3  54.0    0.00     0
2020-02-20 23:00  13.4  15.4   288  20.5   6.5  54.3    0.00     0
2020-02-20 22:00  11.5  13.6   279  21.6   4.2  46.8    0.00     0
2020-02-20 21:00   9.7  11.5   293  21.9   5.7  49.3    0.00     0
2020-02-20 20:00   9.3  11.9   310  20.7   5.7  52.0    0.00     0
2020-02-20 19:00  10.3  12.6   338  20.5   6.2  53.6    0.00     0
2020-02-20 18:00  11.5  12.6   349  20.3   9.2  61.9    0.00     0
2020-02-20 17:00  10.5  12.1   307  21.0   9.8  61.6    0.00    82
2020-02-20 16:00   9.3  10.9   304  21.0   9.0  59.5    0.00   331
2020-02-20 15:00  12.6  14.8   319  21.0  10.4  63.2    0.00   488
2020-02-20 14:00  12.8  16.3   318  20.7  11.6  67.7    0.00   352
2020-02-20 13:00  14.2  16.5   344  21.7  11.0  63.0    0.00   494
2020-02-20 12:00  16.1  17.9   340  22.5  10.8  60.5    0.00   937
2020-02-20 11:00  14.4  17.1   335  22.5  10.9  60.8    0.00  1120
2020-02-20 10:00  15.2  17.1   337  21.6  14.3  73.2    0.00   404
2020-02-20 09:00  15.0  17.5   333  21.4  10.7  63.0    0.00   311
2020-02-20 08:00  11.9  14.0     0  21.2  10.5  62.9    0.00   165
2020-02-20 07:00  13.6  16.1   326  20.7  10.8  65.3    0.00     0
2020-02-20 06:00  11.7  15.6   335  19.9   8.6  61.0    0.00     0
2020-02-20 05:00  15.4  16.3   343  20.1   8.5  60.3    0.00     0
2020-02-20 04:00  16.3  18.3   334  21.0  11.0  64.8    0.00     0
2020-02-20 03:00  15.9  19.1   330  21.7   9.2  58.1    0.00     0
2020-02-20 02:00  16.1  17.9   329  21.9   7.9  54.5    0.00     0
2020-02-20 01:00  16.1  18.9   328  22.5   8.2  54.1    0.00     0
2020-02-20 00:00  14.6  16.1   313  23.2   7.9  51.6    0.00     0
2020-02-19 23:00  15.6  17.9   328  24.1   9.0  52.3    0.00     0
2020-02-19 22:00  14.2  17.1   320  24.8   7.1  46.7    0.00     0
2020-02-19 21:00  11.5  13.0   333  24.8   8.6  49.9    0.00     0
2020-02-19 20:00   8.4   9.3   327  24.8   8.4  49.5    0.00     0
2020-02-19 19:00  11.3  12.4   348  24.6   8.6  50.1    0.00     0
2020-02-19 18:00   9.5  12.2   349  24.3   8.7  51.1    0.00     0
2020-02-19 17:00   9.1  10.7   352  24.6   8.7  50.4    0.00    22
2020-02-19 16:00  10.3  12.4   357  25.2   8.1  48.1    0.00   329
2020-02-19 15:00  10.3  12.1   338  25.3   6.2  43.8    0.00   659
2020-02-19 14:00  10.9  12.6   345  25.2   7.5  46.8    0.00   906
2020-02-19 13:00   9.9  13.6   328  25.2  11.6  56.0    0.00   997
2020-02-19 12:00   7.6   9.1   325  24.8  11.2  56.0    0.00  1071
2020-02-19 11:00   9.7  10.9   330  24.8  14.1  63.6    0.00  1153
2020-02-19 10:00  10.7  12.2   335  24.4  15.2  67.5    0.00   908
2020-02-19 09:00  12.6  15.9   341  24.1  14.7  67.2    0.00   465
2020-02-19 08:00  12.1  14.8   333  23.9  14.1  65.8    0.00   306
2020-02-19 07:00  15.0  16.7   343  23.7  15.2  69.5    0.00     0
2020-02-19 06:00  15.6  17.7   335  23.9  15.4  69.7    0.00     0
2020-02-19 05:00  16.9  20.4   349  24.1  15.5  69.5    0.00     0
2020-02-19 04:00  17.3  21.6   334  23.9  13.0  62.7    0.00     0
2020-02-19 03:00  23.7  25.7   349  25.7  17.8  71.6    0.00     0
2020-02-19 02:00  18.3  21.0   342  28.8  19.5  68.1    0.00     0
2020-02-19 01:00  16.1  18.5   318  28.8  20.4  70.7    0.00     0
2020-02-19 00:00  18.7  20.4   311  29.5  20.2  68.0    0.00     0
2020-02-18 23:00  17.7  20.0   279  30.2  21.6  70.1    0.00     0
2020-02-18 22:00  20.0  22.0   260  30.7  23.7  74.7    0.00     0
2020-02-18 21:00  16.9  19.8   251  32.2  25.2  75.2    0.00     0
2020-02-18 20:00   6.6   7.4   240  32.9  27.7  80.9    0.00     0
2020-02-18 19:00   8.6  10.1   295  33.3  24.6  70.3    0.00     0
2020-02-18 18:00  10.7  11.3   316  33.3  23.3  66.6    0.00     0